Time;durP1;ratioP1;P1;durP2;ratioP2;P2;SDS_P1;SDS_P2;PMS_P1;PMS_P2;Temp;Humidity;BMP_temperature;BMP_pressure;BME280_temperature;BME280_humidity;BME280_pressure;Samples;Min_cycle;Max_cycle;Signal;HPM_P1;HPM_P2
2023/12/10 00:02:16;;;;;;;7.32;1.25;;;10.50;99.90;;;;;;5018414;28;20045;-73
2023/12/10 00:04:43;;;;;;;2.55;0.88;;;10.50;99.90;;;;;;5014663;28;20036;-73
2023/12/10 00:07:09;;;;;;;11.40;2.25;;;10.60;99.90;;;;;;5030518;28;20029;-73
2023/12/10 00:09:35;;;;;;;9.95;1.33;;;10.60;99.90;;;;;;5021819;28;20052;-74
2023/12/10 00:12:01;;;;;;;10.45;1.10;;;10.60;99.90;;;;;;5023579;28;20486;-73
2023/12/10 00:14:26;;;;;;;6.97;1.98;;;10.60;99.90;;;;;;5030478;28;20068;-72
2023/12/10 00:16:53;;;;;;;20.67;2.90;;;10.50;99.90;;;;;;5023489;28;20436;-73
2023/12/10 00:19:19;;;;;;;9.60;1.75;;;10.60;99.90;;;;;;5030060;28;20029;-74
2023/12/10 00:21:46;;;;;;;23.02;3.17;;;10.60;99.90;;;;;;5026755;28;20118;-72
2023/12/10 00:24:12;;;;;;;11.55;1.92;;;10.60;99.90;;;;;;5022387;28;20076;-72
2023/12/10 00:26:38;;;;;;;12.68;2.13;;;10.60;99.90;;;;;;5027260;28;20037;-73
2023/12/10 00:29:04;;;;;;;21.30;3.13;;;10.60;99.90;;;;;;5021495;28;20021;-73
2023/12/10 00:31:29;;;;;;;8.57;2.45;;;10.50;99.90;;;;;;5027202;28;20033;-73
2023/12/10 00:33:55;;;;;;;11.65;1.75;;;10.50;99.90;;;;;;5014098;28;20405;-73
2023/12/10 00:36:21;;;;;;;11.00;1.50;;;10.40;99.90;;;;;;5029825;28;20029;-72
2023/12/10 00:38:47;;;;;;;14.55;2.78;;;10.60;99.90;;;;;;5013154;28;21005;-72
2023/12/10 00:41:14;;;;;;;8.77;1.92;;;10.60;99.90;;;;;;5024863;28;20034;-72
2023/12/10 00:43:43;;;;;;;8.40;3.35;;;10.60;99.90;;;;;;5011492;28;20128;-72
2023/12/10 00:46:10;;;;;;;9.23;1.85;;;10.50;99.90;;;;;;5013984;28;20029;-72
2023/12/10 00:48:37;;;;;;;12.60;2.03;;;10.40;99.90;;;;;;5012853;28;20494;-72
2023/12/10 00:51:04;;;;;;;4.93;1.50;;;10.40;99.90;;;;;;5012813;28;20056;-72
2023/12/10 00:53:29;;;;;;;15.25;2.42;;;10.50;99.90;;;;;;5026197;28;20033;-72
2023/12/10 00:55:55;;;;;;;13.35;1.65;;;10.50;99.90;;;;;;5006577;28;20041;-73
2023/12/10 00:58:21;;;;;;;16.27;3.05;;;10.60;99.90;;;;;;5026787;28;20053;-72
2023/12/10 01:00:47;;;;;;;22.25;2.30;;;10.60;99.90;;;;;;5026041;28;20037;-73
2023/12/10 01:03:12;;;;;;;18.92;2.20;;;10.40;99.90;;;;;;5031874;28;20060;-73
2023/12/10 01:05:38;;;;;;;15.20;2.33;;;10.40;99.90;;;;;;5032493;28;20061;-73
2023/12/10 01:08:04;;;;;;;21.73;1.92;;;10.40;99.90;;;;;;5024500;28;20076;-72
2023/12/10 01:10:30;;;;;;;5.10;1.02;;;10.50;99.90;;;;;;5047389;28;20040;-73
2023/12/10 01:12:57;;;;;;;12.15;1.67;;;10.50;99.90;;;;;;5024581;28;20434;-73
2023/12/10 01:15:29;;;;;;;22.35;1.42;;;10.60;99.90;;;;;;5031493;28;20052;-73
2023/12/10 01:18:02;;;;;;;19.80;2.55;;;10.60;99.90;;;;;;5031475;28;20033;-74
2023/12/10 01:20:30;;;;;;;15.80;3.35;;;10.50;99.90;;;;;;5031749;28;20490;-74
2023/12/10 01:22:56;;;;;;;23.85;1.60;;;10.60;99.90;;;;;;5024440;28;20026;-74
2023/12/10 01:25:24;;;;;;;6.72;2.22;;;10.70;99.90;;;;;;5029405;28;20032;-74
2023/12/10 01:27:53;;;;;;;17.33;2.28;;;10.70;99.90;;;;;;5023130;28;20434;-74
2023/12/10 01:30:23;;;;;;;19.73;2.00;;;10.70;99.90;;;;;;5015028;28;20422;-74
2023/12/10 01:33:00;;;;;;;19.40;2.67;;;10.70;99.90;;;;;;5015682;28;20040;-74
2023/12/10 01:35:26;;;;;;;15.57;1.67;;;10.70;99.90;;;;;;5022823;28;20378;-73
2023/12/10 01:37:52;;;;;;;15.85;2.20;;;10.70;99.90;;;;;;5016185;28;20076;-74
2023/12/10 01:40:21;;;;;;;11.30;2.03;;;10.70;99.90;;;;;;5014073;28;20036;-73
2023/12/10 01:42:47;;;;;;;12.50;1.67;;;10.70;99.90;;;;;;5029454;28;20037;-74
2023/12/10 01:45:14;;;;;;;11.52;1.55;;;10.60;99.90;;;;;;5019678;28;20026;-73
2023/12/10 01:47:43;;;;;;;22.42;2.10;;;10.70;99.90;;;;;;5014833;28;20043;-73
2023/12/10 01:50:13;;;;;;;12.38;1.75;;;10.60;99.90;;;;;;5019786;28;20063;-73
2023/12/10 01:52:40;;;;;;;9.15;1.65;;;10.60;99.90;;;;;;5018522;28;20080;-73
2023/12/10 01:55:09;;;;;;;11.63;2.88;;;10.70;99.90;;;;;;5032154;28;20036;-74
2023/12/10 01:57:35;;;;;;;9.73;1.73;;;10.70;99.90;;;;;;5024671;28;20034;-74
2023/12/10 02:00:05;;;;;;;9.05;2.00;;;10.60;99.90;;;;;;5028519;28;20037;-73
2023/12/10 02:02:36;;;;;;;26.58;1.80;;;10.60;99.90;;;;;;5024435;28;20029;-73
2023/12/10 02:05:07;;;;;;;19.55;1.90;;;10.60;99.90;;;;;;5043489;28;20497;-73
2023/12/10 02:07:33;;;;;;;16.83;1.83;;;10.50;99.90;;;;;;5022639;28;20034;-73
2023/12/10 02:09:59;;;;;;;13.73;2.22;;;10.60;99.90;;;;;;5013343;28;20025;-74
2023/12/10 02:12:27;;;;;;;9.13;2.50;;;10.60;99.90;;;;;;5028161;28;20052;-74
2023/12/10 02:14:54;;;;;;;5.38;1.80;;;10.50;99.90;;;;;;5030162;28;20025;-74
2023/12/10 02:17:20;;;;;;;18.85;2.50;;;10.60;99.90;;;;;;5022252;28;20037;-73
2023/12/10 02:19:45;;;;;;;6.25;0.98;;;10.60;99.90;;;;;;5014706;28;20108;-73
2023/12/10 02:22:16;;;;;;;8.52;1.45;;;10.60;99.90;;;;;;5030593;28;20028;-75
2023/12/10 02:24:54;;;;;;;7.27;1.00;;;10.30;99.90;;;;;;5005517;28;20026;-75
2023/12/10 02:27:21;;;;;;;10.65;2.10;;;9.50;99.90;;;;;;5010870;28;20045;-74
2023/12/10 02:29:51;;;;;;;7.70;1.77;;;9.10;99.90;;;;;;5009922;28;20100;-75
2023/12/10 02:32:17;;;;;;;14.47;1.20;;;8.90;99.90;;;;;;5018346;28;20569;-74
2023/12/10 02:34:43;;;;;;;17.33;2.97;;;8.70;99.90;;;;;;5019679;28;20128;-73
2023/12/10 02:37:09;;;;;;;9.85;1.30;;;8.60;99.90;;;;;;5021925;28;20091;-75
2023/12/10 02:39:34;;;;;;;3.05;1.27;;;8.70;99.90;;;;;;5029192;28;20038;-73
2023/12/10 02:42:00;;;;;;;3.25;1.00;;;8.70;99.90;;;;;;5029899;28;20033;-73
2023/12/10 02:44:26;;;;;;;3.15;0.75;;;8.70;99.90;;;;;;5015111;28;20029;-74
2023/12/10 02:46:52;;;;;;;3.15;0.75;;;8.80;99.90;;;;;;5027507;28;20037;-73
2023/12/10 02:49:18;;;;;;;1.20;0.60;;;8.80;99.90;;;;;;5019231;28;20030;-73
2023/12/10 02:51:44;;;;;;;3.42;0.80;;;8.70;99.90;;;;;;5009378;28;20300;-74
2023/12/10 02:54:09;;;;;;;7.07;2.28;;;8.60;99.90;;;;;;5016218;28;20100;-74
2023/12/10 02:56:35;;;;;;;7.10;0.60;;;8.50;99.90;;;;;;5030721;28;20044;-73
2023/12/10 02:59:01;;;;;;;3.78;1.05;;;8.50;99.90;;;;;;5020550;28;20044;-74
2023/12/10 03:01:27;;;;;;;11.82;1.55;;;8.50;99.90;;;;;;5022341;28;20441;-74
2023/12/10 03:03:53;;;;;;;6.45;0.95;;;8.50;99.90;;;;;;5028647;28;20121;-74
2023/12/10 03:06:19;;;;;;;16.70;1.20;;;8.50;99.90;;;;;;5026062;28;20028;-74
2023/12/10 03:08:45;;;;;;;5.15;1.30;;;8.60;99.90;;;;;;5016337;28;20026;-74
2023/12/10 03:11:11;;;;;;;4.72;0.65;;;8.70;99.90;;;;;;5025711;28;20042;-74
2023/12/10 03:13:36;;;;;;;6.90;1.15;;;8.60;99.90;;;;;;5021846;28;20076;-74
2023/12/10 03:16:02;;;;;;;10.52;1.10;;;8.60;99.90;;;;;;5017496;28;20056;-74
2023/12/10 03:18:29;;;;;;;11.02;1.20;;;8.70;99.90;;;;;;5016412;28;20509;-74
2023/12/10 03:20:55;;;;;;;4.82;0.77;;;8.70;99.90;;;;;;5022874;28;20482;-74
2023/12/10 03:23:21;;;;;;;2.15;0.70;;;8.70;99.90;;;;;;5023605;28;20041;-74
2023/12/10 03:25:46;;;;;;;8.60;0.75;;;8.70;99.90;;;;;;5022064;28;20451;-74
2023/12/10 03:28:12;;;;;;;5.07;0.68;;;8.60;99.90;;;;;;5000743;28;20029;-74
2023/12/10 03:30:38;;;;;;;5.40;0.93;;;8.50;99.90;;;;;;5025434;28;20033;-73
2023/12/10 03:33:04;;;;;;;4.18;1.17;;;8.50;99.90;;;;;;5021310;28;20076;-73
2023/12/10 03:35:30;;;;;;;7.63;0.95;;;8.40;99.90;;;;;;5018753;28;20033;-73
2023/12/10 03:37:56;;;;;;;10.23;1.95;;;8.30;99.90;;;;;;5019509;28;20033;-73
2023/12/10 03:40:22;;;;;;;6.25;0.80;;;8.30;99.90;;;;;;5028107;28;20025;-72
2023/12/10 03:42:47;;;;;;;1.95;0.57;;;8.30;99.90;;;;;;5025592;28;20854;-74
2023/12/10 03:45:14;;;;;;;7.53;0.95;;;8.10;99.90;;;;;;5031602;28;20040;-72
2023/12/10 03:47:46;;;;;;;3.22;0.80;;;8.10;99.90;;;;;;5027818;28;20108;-73
2023/12/10 03:50:15;;;;;;;3.67;0.85;;;8.10;99.90;;;;;;5029820;28;20029;-73
2023/12/10 03:52:41;;;;;;;2.17;0.90;;;8.10;99.90;;;;;;5022703;28;20041;-73
2023/12/10 03:55:08;;;;;;;2.78;0.85;;;8.10;99.90;;;;;;5022779;28;20038;-72
2023/12/10 03:57:34;;;;;;;8.20;1.67;;;8.10;99.90;;;;;;5026984;28;20033;-72
2023/12/10 04:00:04;;;;;;;16.95;0.88;;;8.10;99.90;;;;;;5023840;28;20139;-73
2023/12/10 04:02:30;;;;;;;1.15;0.40;;;8.10;99.90;;;;;;5019758;28;20034;-73
2023/12/10 04:04:56;;;;;;;9.93;1.65;;;8.10;99.90;;;;;;5023691;28;20026;-73
2023/12/10 04:07:22;;;;;;;10.25;0.70;;;8.00;99.90;;;;;;5042384;28;20548;-73
2023/12/10 04:09:48;;;;;;;4.82;0.85;;;8.10;99.90;;;;;;5040443;28;20042;-73
2023/12/10 04:12:13;;;;;;;1.85;0.35;;;8.10;99.90;;;;;;5017642;28;20030;-73
2023/12/10 04:14:39;;;;;;;18.02;1.15;;;8.10;99.90;;;;;;5021097;28;20037;-73
2023/12/10 04:17:05;;;;;;;16.35;3.75;;;8.20;99.90;;;;;;5022831;28;20037;-73
2023/12/10 04:19:31;;;;;;;8.43;1.40;;;8.20;99.90;;;;;;5022975;28;20101;-73
2023/12/10 04:21:56;;;;;;;9.07;1.63;;;8.10;99.90;;;;;;5021006;28;20521;-73
2023/12/10 04:24:22;;;;;;;12.10;1.10;;;8.20;99.90;;;;;;5030166;28;20029;-73
2023/12/10 04:26:48;;;;;;;5.05;1.55;;;8.40;99.90;;;;;;5007789;28;20065;-73
2023/12/10 04:29:14;;;;;;;7.72;0.70;;;8.50;99.90;;;;;;5019835;28;20021;-73
2023/12/10 04:31:39;;;;;;;9.98;2.05;;;8.60;99.90;;;;;;5028566;28;20029;-73
2023/12/10 04:34:05;;;;;;;12.68;1.42;;;8.60;99.90;;;;;;5040276;28;20107;-73
2023/12/10 04:36:31;;;;;;;6.63;1.65;;;8.50;99.90;;;;;;5027032;28;20080;-74
2023/12/10 04:38:57;;;;;;;10.27;1.13;;;8.60;99.90;;;;;;5043832;28;20041;-74
2023/12/10 04:41:23;;;;;;;10.65;1.35;;;8.70;99.90;;;;;;5001153;28;20748;-74
2023/12/10 04:43:48;;;;;;;6.55;1.75;;;8.70;99.90;;;;;;5029166;28;20382;-74
2023/12/10 04:46:16;;;;;;;11.63;2.70;;;8.80;99.90;;;;;;5033468;28;20037;-74
2023/12/10 04:48:43;;;;;;;11.23;2.17;;;8.90;99.90;;;;;;5029102;28;20103;-74
2023/12/10 04:51:09;;;;;;;19.77;1.38;;;8.90;99.90;;;;;;5033005;28;20096;-74
2023/12/10 04:53:35;;;;;;;1.73;0.47;;;8.80;99.90;;;;;;5007632;28;20072;-74
2023/12/10 04:56:01;;;;;;;19.35;2.33;;;8.80;99.90;;;;;;5032058;28;20504;-74
2023/12/10 04:58:27;;;;;;;15.77;1.67;;;8.80;99.90;;;;;;5019163;28;20033;-74
2023/12/10 05:00:53;;;;;;;12.88;1.63;;;8.80;99.90;;;;;;5036847;28;20038;-74
2023/12/10 05:03:19;;;;;;;5.72;1.25;;;8.70;99.90;;;;;;5020043;28;20030;-75
2023/12/10 05:05:44;;;;;;;12.40;1.83;;;8.80;99.90;;;;;;5019984;28;20030;-74
2023/12/10 05:08:10;;;;;;;10.82;1.52;;;8.80;99.90;;;;;;5022421;28;20037;-74
2023/12/10 05:10:36;;;;;;;10.07;1.88;;;8.90;99.90;;;;;;5020481;28;20121;-74
2023/12/10 05:13:02;;;;;;;14.35;1.02;;;9.00;99.90;;;;;;5038644;28;20033;-74
2023/12/10 05:15:28;;;;;;;5.80;2.67;;;9.00;99.90;;;;;;5028121;28;20658;-74
2023/12/10 05:17:54;;;;;;;10.93;1.35;;;9.10;99.90;;;;;;5028883;28;20063;-74
2023/12/10 05:20:20;;;;;;;10.93;1.95;;;9.10;99.90;;;;;;5030007;28;20069;-74
2023/12/10 05:22:46;;;;;;;6.35;1.50;;;9.20;99.90;;;;;;5014805;28;20029;-75
2023/12/10 05:25:12;;;;;;;3.85;0.73;;;9.20;99.90;;;;;;5021894;28;20037;-75
2023/12/10 05:27:38;;;;;;;10.60;1.42;;;9.20;99.90;;;;;;5008287;28;20032;-74
2023/12/10 05:30:04;;;;;;;4.32;1.02;;;9.20;99.90;;;;;;5026210;28;20056;-74
2023/12/10 05:32:30;;;;;;;7.20;1.40;;;9.20;99.90;;;;;;5016647;28;20029;-74
2023/12/10 05:34:56;;;;;;;8.68;1.67;;;9.20;99.90;;;;;;5030715;28;20029;-74
2023/12/10 05:37:21;;;;;;;9.50;1.55;;;9.20;99.90;;;;;;5032402;28;20068;-75
2023/12/10 05:39:47;;;;;;;8.90;1.52;;;9.20;99.90;;;;;;5028806;28;20041;-74
2023/12/10 05:42:13;;;;;;;14.20;1.83;;;9.20;99.90;;;;;;5020817;28;20545;-74
2023/12/10 05:44:39;;;;;;;8.68;1.23;;;9.30;99.90;;;;;;5020393;28;20512;-74
2023/12/10 05:47:04;;;;;;;11.38;0.88;;;9.40;99.90;;;;;;5042491;28;20501;-74
2023/12/10 05:49:30;;;;;;;12.93;1.45;;;9.40;99.90;;;;;;5040584;28;20403;-74
2023/12/10 05:51:56;;;;;;;5.47;1.08;;;9.50;99.90;;;;;;5022834;28;20112;-74
2023/12/10 05:54:22;;;;;;;7.53;0.93;;;9.50;99.90;;;;;;5019766;28;20026;-74
2023/12/10 05:56:47;;;;;;;6.63;1.17;;;9.50;99.90;;;;;;5014177;28;20099;-74
2023/12/10 05:59:14;;;;;;;19.10;1.85;;;9.50;99.90;;;;;;5030280;28;20363;-74
2023/12/10 06:01:40;;;;;;;11.70;4.68;;;9.40;99.90;;;;;;5023333;28;20037;-74
2023/12/10 06:04:07;;;;;;;10.07;1.42;;;9.50;99.90;;;;;;5015552;28;20534;-75
2023/12/10 06:06:32;;;;;;;16.65;1.88;;;9.60;99.90;;;;;;5030120;28;20057;-73
2023/12/10 06:08:58;;;;;;;11.32;1.60;;;9.60;99.90;;;;;;5027093;28;20049;-75
2023/12/10 06:11:24;;;;;;;4.00;1.38;;;9.60;99.90;;;;;;5031750;28;20033;-74
2023/12/10 06:13:50;;;;;;;10.25;1.13;;;9.60;99.90;;;;;;5028436;28;20052;-74
2023/12/10 06:16:15;;;;;;;10.75;1.50;;;9.60;99.90;;;;;;5016844;28;20037;-74
2023/12/10 06:18:41;;;;;;;12.07;2.20;;;9.70;99.90;;;;;;5022868;28;20522;-73
2023/12/10 06:21:07;;;;;;;7.57;1.83;;;9.80;99.90;;;;;;5027942;28;20037;-75
2023/12/10 06:23:33;;;;;;;6.40;0.98;;;9.70;99.90;;;;;;5032698;28;20017;-74
2023/12/10 06:25:59;;;;;;;7.72;1.58;;;9.70;99.90;;;;;;5025255;28;20489;-74
2023/12/10 06:28:25;;;;;;;12.80;2.33;;;9.70;99.90;;;;;;5020923;28;20022;-74
2023/12/10 06:30:51;;;;;;;12.02;1.92;;;9.70;99.90;;;;;;5031467;28;20044;-73
2023/12/10 06:33:17;;;;;;;9.30;1.80;;;9.70;99.90;;;;;;5014622;28;20033;-73
2023/12/10 06:35:43;;;;;;;9.20;2.10;;;9.70;99.90;;;;;;5022837;28;20072;-73
2023/12/10 06:38:09;;;;;;;10.55;2.15;;;9.80;99.90;;;;;;5021932;28;20142;-73
2023/12/10 06:40:35;;;;;;;11.20;2.00;;;9.90;99.90;;;;;;5009032;28;20041;-74
2023/12/10 06:43:00;;;;;;;9.55;1.52;;;9.80;99.90;;;;;;5031551;28;20032;-74
2023/12/10 06:45:26;;;;;;;2.15;1.05;;;9.80;99.90;;;;;;5019863;28;20026;-74
2023/12/10 06:47:52;;;;;;;11.15;1.08;;;9.80;99.90;;;;;;5029745;28;20021;-74
2023/12/10 06:50:18;;;;;;;15.02;1.67;;;9.80;99.90;;;;;;5010760;28;20378;-73
2023/12/10 06:52:44;;;;;;;5.45;1.02;;;9.80;99.90;;;;;;5030899;28;20045;-74
2023/12/10 06:55:10;;;;;;;9.18;1.35;;;9.80;99.90;;;;;;5023335;28;20514;-73
2023/12/10 06:57:36;;;;;;;13.40;2.58;;;9.80;99.90;;;;;;5020803;28;20441;-72
2023/12/10 07:00:02;;;;;;;3.30;1.08;;;9.70;99.90;;;;;;5003237;28;20038;-74
2023/12/10 07:02:28;;;;;;;2.50;0.68;;;9.70;99.90;;;;;;5018976;28;20029;-73
2023/12/10 07:04:54;;;;;;;13.65;1.10;;;9.80;99.90;;;;;;5018276;28;20026;-73
2023/12/10 07:07:20;;;;;;;4.43;1.65;;;9.80;99.90;;;;;;5022869;28;20068;-74
2023/12/10 07:09:46;;;;;;;5.38;0.68;;;9.70;99.90;;;;;;5019368;28;20057;-73
2023/12/10 07:12:11;;;;;;;5.07;1.05;;;9.80;99.90;;;;;;5040417;28;20037;-72
2023/12/10 07:14:37;;;;;;;6.00;1.02;;;9.80;99.90;;;;;;5025838;28;20025;-72
2023/12/10 07:17:03;;;;;;;5.93;2.00;;;9.70;99.90;;;;;;5022657;28;20513;-73
2023/12/10 07:19:29;;;;;;;4.75;1.05;;;9.70;99.90;;;;;;5030831;28;20036;-73
2023/12/10 07:21:55;;;;;;;3.42;1.00;;;9.70;99.90;;;;;;5027417;28;20040;-72
2023/12/10 07:24:21;;;;;;;9.13;1.15;;;9.80;99.90;;;;;;5031188;28;20468;-72
2023/12/10 07:26:47;;;;;;;4.20;1.02;;;9.70;99.90;;;;;;5014700;28;20063;-73
2023/12/10 07:29:14;;;;;;;17.83;1.63;;;9.80;99.90;;;;;;5028116;28;20038;-71
2023/12/10 07:31:39;;;;;;;13.70;1.30;;;9.80;99.90;;;;;;5019688;28;20553;-73
2023/12/10 07:34:05;;;;;;;3.50;0.98;;;9.70;99.90;;;;;;4993760;28;20038;-73
2023/12/10 07:36:31;;;;;;;3.53;1.58;;;9.70;99.90;;;;;;5015408;28;20056;-72
2023/12/10 07:38:57;;;;;;;7.80;0.85;;;9.70;99.90;;;;;;4993637;28;20367;-75
2023/12/10 07:41:22;;;;;;;18.35;2.25;;;9.60;99.90;;;;;;5030090;28;20038;-75
2023/12/10 07:43:48;;;;;;;4.57;0.93;;;9.70;99.90;;;;;;5029844;28;20180;-75
2023/12/10 07:46:14;;;;;;;7.28;1.63;;;9.70;99.90;;;;;;5030163;28;20056;-75
2023/12/10 07:48:40;;;;;;;6.75;1.15;;;9.70;99.90;;;;;;5045817;28;20501;-75
2023/12/10 07:51:06;;;;;;;7.95;1.13;;;9.70;99.90;;;;;;5026409;28;20040;-74
2023/12/10 07:53:32;;;;;;;5.28;0.85;;;9.70;99.90;;;;;;5010731;28;20104;-75
2023/12/10 07:55:58;;;;;;;10.00;1.65;;;9.70;99.90;;;;;;5032158;28;20601;-75
2023/12/10 07:58:23;;;;;;;11.27;2.10;;;9.60;99.90;;;;;;5023512;28;20505;-74
2023/12/10 08:00:49;;;;;;;9.02;1.60;;;9.50;99.90;;;;;;5026859;28;20061;-76
2023/12/10 08:03:15;;;;;;;11.82;2.22;;;9.60;99.90;;;;;;5025654;28;20067;-74
2023/12/10 08:05:42;;;;;;;5.82;0.98;;;9.60;99.90;;;;;;5033322;28;20029;-74
2023/12/10 08:08:07;;;;;;;9.23;2.25;;;9.70;99.90;;;;;;5026194;28;20029;-74
2023/12/10 08:10:33;;;;;;;4.80;1.65;;;9.70;99.90;;;;;;5016128;28;20216;-73
2023/12/10 08:12:59;;;;;;;6.75;1.08;;;9.60;99.90;;;;;;5033695;28;20104;-74
2023/12/10 08:15:26;;;;;;;5.22;0.75;;;9.60;99.90;;;;;;5018909;28;20053;-75
2023/12/10 08:17:52;;;;;;;4.70;1.38;;;9.60;99.90;;;;;;5033513;28;20025;-75
2023/12/10 08:20:18;;;;;;;4.90;1.67;;;9.60;99.90;;;;;;5021294;28;20037;-74
2023/12/10 08:22:44;;;;;;;8.52;2.15;;;9.70;99.90;;;;;;5003600;28;20033;-74
2023/12/10 08:25:10;;;;;;;8.35;1.77;;;9.70;99.90;;;;;;5033409;28;20045;-74
2023/12/10 08:27:36;;;;;;;4.15;2.10;;;9.70;99.90;;;;;;5019813;28;20076;-73
2023/12/10 08:30:02;;;;;;;5.72;1.85;;;9.70;99.90;;;;;;5020832;28;20040;-73
2023/12/10 08:32:28;;;;;;;6.25;1.33;;;9.70;99.90;;;;;;5025923;28;20025;-73
2023/12/10 08:34:54;;;;;;;6.70;1.50;;;9.80;99.90;;;;;;5032001;28;20044;-75
2023/12/10 08:37:20;;;;;;;4.18;0.75;;;9.80;99.90;;;;;;5031453;28;20033;-73
2023/12/10 08:39:49;;;;;;;6.32;1.67;;;9.90;99.90;;;;;;5027187;28;20847;-73
2023/12/10 08:42:15;;;;;;;9.13;1.33;;;9.90;99.90;;;;;;5008863;28;20556;-73
2023/12/10 08:44:41;;;;;;;17.52;1.60;;;9.90;99.90;;;;;;5032116;28;20030;-75
2023/12/10 08:47:06;;;;;;;9.63;1.35;;;10.00;99.90;;;;;;5031501;28;20542;-72
2023/12/10 08:49:32;;;;;;;8.32;1.33;;;10.00;99.90;;;;;;5026290;28;20025;-73
2023/12/10 08:51:58;;;;;;;1.60;0.90;;;10.10;99.90;;;;;;5024319;28;20045;-72
2023/12/10 08:54:24;;;;;;;15.88;2.80;;;10.20;99.90;;;;;;5025351;28;20025;-72
2023/12/10 08:56:50;;;;;;;8.02;1.70;;;10.20;99.90;;;;;;5024120;28;20033;-72
2023/12/10 08:59:15;;;;;;;3.40;0.77;;;10.20;99.90;;;;;;5023116;28;20033;-72
2023/12/10 09:01:41;;;;;;;3.10;1.05;;;10.20;99.90;;;;;;5031673;28;20038;-74
2023/12/10 09:04:07;;;;;;;6.70;0.52;;;10.20;99.90;;;;;;5017143;28;20119;-74
2023/12/10 09:06:33;;;;;;;4.15;0.55;;;10.30;99.90;;;;;;5025610;28;20036;-73
2023/12/10 09:08:59;;;;;;;8.38;2.22;;;10.40;99.90;;;;;;5047299;28;20091;-73
2023/12/10 09:11:25;;;;;;;7.47;1.65;;;10.50;99.90;;;;;;5024165;28;20099;-73
2023/12/10 09:13:50;;;;;;;3.10;1.02;;;10.50;99.90;;;;;;5031799;28;20033;-73
2023/12/10 09:16:20;;;;;;;10.45;1.20;;;10.50;99.90;;;;;;5012161;28;20029;-75
2023/12/10 09:18:46;;;;;;;13.88;0.80;;;10.60;99.90;;;;;;5024788;28;20041;-73
2023/12/10 09:21:11;;;;;;;8.23;2.20;;;10.60;99.90;;;;;;5032538;28;20413;-72
2023/12/10 09:23:37;;;;;;;2.47;0.70;;;10.80;99.90;;;;;;5032506;28;20112;-72
2023/12/10 09:26:04;;;;;;;2.85;1.38;;;10.80;99.90;;;;;;5021726;28;20046;-73
2023/12/10 09:28:30;;;;;;;10.25;1.13;;;10.80;99.90;;;;;;5021872;28;20040;-73
2023/12/10 09:30:56;;;;;;;5.70;1.10;;;10.80;99.90;;;;;;5019241;28;20030;-74
2023/12/10 09:33:22;;;;;;;11.20;1.17;;;10.90;99.90;;;;;;5021947;28;20378;-73
2023/12/10 09:35:48;;;;;;;4.25;0.98;;;10.90;99.90;;;;;;5027102;28;20025;-73
2023/12/10 09:38:15;;;;;;;5.28;0.95;;;10.90;99.90;;;;;;5028779;28;20029;-72
2023/12/10 09:40:41;;;;;;;16.38;1.40;;;10.90;99.90;;;;;;5017334;28;20092;-73
2023/12/10 09:43:06;;;;;;;4.80;1.52;;;10.90;99.90;;;;;;5037336;28;20030;-73
2023/12/10 09:45:33;;;;;;;6.00;0.68;;;11.00;99.90;;;;;;5025926;28;20030;-77
2023/12/10 09:47:59;;;;;;;11.52;0.98;;;11.40;99.90;;;;;;5023271;28;20041;-75
2023/12/10 09:50:25;;;;;;;8.05;1.95;;;12.10;99.90;;;;;;5011646;28;20116;-75
2023/12/10 09:52:51;;;;;;;6.97;0.88;;;12.30;99.90;;;;;;5020856;28;20121;-76
2023/12/10 09:55:17;;;;;;;10.43;1.48;;;12.10;99.90;;;;;;5032056;28;20033;-75
2023/12/10 09:57:43;;;;;;;2.47;1.30;;;11.40;99.90;;;;;;5032310;28;20041;-76
2023/12/10 10:00:10;;;;;;;10.02;1.33;;;11.10;99.90;;;;;;5030965;28;20037;-76
2023/12/10 10:02:36;;;;;;;14.80;1.70;;;11.00;99.90;;;;;;5031785;28;20032;-76
2023/12/10 10:05:05;;;;;;;11.25;1.13;;;10.90;99.90;;;;;;5009202;28;20033;-73
2023/12/10 10:07:32;;;;;;;10.27;1.27;;;10.90;99.90;;;;;;5016077;28;20040;-74
2023/12/10 10:09:58;;;;;;;6.53;1.17;;;10.80;99.90;;;;;;5030434;28;20029;-75
2023/12/10 10:12:35;;;;;;;7.53;1.52;;;10.80;99.90;;;;;;5023223;28;20030;-75
2023/12/10 10:15:01;;;;;;;11.18;0.68;;;10.80;99.90;;;;;;5031321;28;20478;-75
2023/12/10 10:17:30;;;;;;;14.68;2.58;;;10.80;99.90;;;;;;5027691;28;20044;-75
2023/12/10 10:19:57;;;;;;;9.65;1.88;;;10.70;99.90;;;;;;5028322;28;20037;-75
2023/12/10 10:22:27;;;;;;;4.03;1.02;;;10.70;99.90;;;;;;5019940;28;20025;-74
2023/12/10 10:24:54;;;;;;;10.68;1.58;;;10.80;99.90;;;;;;5027693;28;20033;-75
2023/12/10 10:27:21;;;;;;;9.32;1.98;;;11.90;99.90;;;;;;5028997;28;20389;-75
2023/12/10 10:29:52;;;;;;;10.63;2.08;;;12.90;99.90;;;;;;5018089;28;20025;-75
2023/12/10 10:32:20;;;;;;;9.20;1.42;;;14.00;99.90;;;;;;5028840;28;20026;-75
2023/12/10 10:34:47;;;;;;;12.40;0.95;;;12.70;99.90;;;;;;5013919;28;20125;-74
2023/12/10 10:37:15;;;;;;;5.68;0.77;;;12.40;99.90;;;;;;5007365;28;20036;-74
2023/12/10 10:39:45;;;;;;;9.70;0.85;;;12.70;99.90;;;;;;5026691;28;20470;-74
2023/12/10 10:42:11;;;;;;;11.07;1.73;;;12.30;99.90;;;;;;5024499;28;20461;-74
2023/12/10 10:44:39;;;;;;;8.60;1.67;;;11.80;99.90;;;;;;5026997;28;20063;-74
2023/12/10 10:47:08;;;;;;;11.85;2.38;;;11.60;99.90;;;;;;5024019;28;20446;-74
2023/12/10 10:49:38;;;;;;;13.98;1.73;;;11.40;99.90;;;;;;5000772;28;20033;-75
2023/12/10 10:52:11;;;;;;;4.95;1.33;;;11.60;99.90;;;;;;5022567;28;20056;-74
2023/12/10 10:54:40;;;;;;;8.95;1.45;;;11.80;99.90;;;;;;5014319;28;20046;-75
2023/12/10 10:57:06;;;;;;;13.45;1.58;;;11.80;99.90;;;;;;5031195;28;20029;-76
2023/12/10 10:59:33;;;;;;;8.57;1.20;;;11.80;99.90;;;;;;5045685;28;20120;-75
2023/12/10 11:02:07;;;;;;;13.35;2.05;;;11.40;99.90;;;;;;5013406;28;20038;-75
2023/12/10 11:04:41;;;;;;;4.72;1.00;;;11.40;99.90;;;;;;5031002;28;20033;-75
2023/12/10 11:07:08;;;;;;;5.32;0.73;;;11.50;99.90;;;;;;5014303;28;20029;-75
2023/12/10 11:09:55;;;;;;;10.23;1.45;;;11.30;99.90;;;;;;5019308;28;20025;-75
2023/12/10 11:12:40;;;;;;;7.18;0.75;;;11.20;99.90;;;;;;5023688;28;20034;-75
2023/12/10 11:15:23;;;;;;;21.20;1.95;;;11.20;99.90;;;;;;5023473;28;20037;-75
2023/12/10 11:17:54;;;;;;;4.63;0.70;;;11.10;99.90;;;;;;5021073;28;20056;-72
2023/12/10 11:20:32;;;;;;;4.30;0.80;;;11.10;99.90;;;;;;5012479;28;20036;-73
2023/12/10 11:22:59;;;;;;;13.18;1.63;;;11.20;99.90;;;;;;5019008;28;20038;-74
2023/12/10 11:25:25;;;;;;;9.02;1.25;;;11.20;99.90;;;;;;5022093;28;20030;-74
2023/12/10 11:27:50;;;;;;;6.05;0.73;;;11.40;99.90;;;;;;5020482;28;20032;-75
2023/12/10 11:30:17;;;;;;;10.73;1.10;;;11.30;99.90;;;;;;5025392;28;20105;-74
2023/12/10 11:32:42;;;;;;;7.80;2.83;;;11.20;99.90;;;;;;5026010;28;20029;-74
2023/12/10 11:35:08;;;;;;;8.48;0.68;;;11.10;99.90;;;;;;5028035;28;20056;-74
2023/12/10 11:37:34;;;;;;;9.18;1.55;;;11.10;99.90;;;;;;5027369;28;20029;-72
2023/12/10 11:40:00;;;;;;;11.98;1.50;;;11.10;99.90;;;;;;5032186;28;20063;-74
2023/12/10 11:42:26;;;;;;;13.00;1.48;;;11.10;99.90;;;;;;5022720;28;20033;-75
2023/12/10 11:44:52;;;;;;;4.93;0.98;;;11.10;99.90;;;;;;5017075;28;20034;-75
2023/12/10 11:47:18;;;;;;;8.18;0.85;;;11.10;99.90;;;;;;5020796;28;20029;-76
2023/12/10 11:49:43;;;;;;;4.07;1.50;;;11.00;99.90;;;;;;5037629;28;20136;-74
2023/12/10 11:52:11;;;;;;;16.30;2.33;;;11.00;99.90;;;;;;5024165;28;20035;-73
2023/12/10 11:54:38;;;;;;;11.18;1.33;;;10.90;99.90;;;;;;5014745;28;20041;-78
2023/12/10 11:57:05;;;;;;;9.13;0.90;;;10.90;99.90;;;;;;5017301;28;20029;-78
2023/12/10 11:59:30;;;;;;;7.53;2.33;;;10.90;99.90;;;;;;5015181;28;20029;-74
2023/12/10 12:01:56;;;;;;;5.93;1.95;;;10.90;99.90;;;;;;5031583;28;20038;-74
2023/12/10 12:04:27;;;;;;;6.72;1.35;;;10.70;99.90;;;;;;5013393;28;20018;-74
2023/12/10 12:06:53;;;;;;;9.00;1.02;;;10.70;99.90;;;;;;5027870;28;20057;-75
2023/12/10 12:09:22;;;;;;;4.38;0.60;;;10.70;99.90;;;;;;5031797;28;20037;-74
2023/12/10 12:11:49;;;;;;;7.78;1.05;;;10.50;99.90;;;;;;5007857;28;20111;-75
2023/12/10 12:14:16;;;;;;;3.03;0.77;;;10.60;99.90;;;;;;5024091;28;20132;-74
2023/12/10 12:16:42;;;;;;;4.15;0.73;;;10.40;99.90;;;;;;5040394;28;20029;-75
2023/12/10 12:19:08;;;;;;;4.70;0.80;;;10.40;99.90;;;;;;5014720;28;20051;-74
2023/12/10 12:21:34;;;;;;;7.57;1.13;;;10.20;99.90;;;;;;5031005;28;20036;-74
2023/12/10 12:24:00;;;;;;;6.13;0.98;;;10.20;99.90;;;;;;5021305;28;20042;-75
2023/12/10 12:26:26;;;;;;;10.07;1.05;;;10.10;99.90;;;;;;5026300;28;20042;-75
2023/12/10 12:28:51;;;;;;;13.73;1.55;;;10.10;99.90;;;;;;5022087;28;20044;-74
2023/12/10 12:31:17;;;;;;;6.90;1.30;;;10.00;99.90;;;;;;5021751;28;20045;-75
2023/12/10 12:33:43;;;;;;;26.50;1.95;;;10.10;99.90;;;;;;5025980;28;20030;-75
2023/12/10 12:36:09;;;;;;;3.90;1.15;;;9.90;99.90;;;;;;5024170;28;20494;-75
2023/12/10 12:38:35;;;;;;;15.85;1.58;;;9.90;99.90;;;;;;5019107;28;20173;-76
2023/12/10 12:41:00;;;;;;;16.17;1.33;;;9.80;99.90;;;;;;5030045;28;20430;-74
2023/12/10 12:43:26;;;;;;;11.35;1.77;;;9.80;99.90;;;;;;5020414;28;20029;-76
2023/12/10 12:45:52;;;;;;;10.75;1.15;;;9.80;99.90;;;;;;5018117;28;20124;-76